sensor_id;sensor_type;location;lat;lon;timestamp;P1;P2;P0
81640;PMS5003;71053;50.722;-1.944;2023-09-19T00:01:53;3;2;
81640;PMS5003;71053;50.722;-1.944;2023-09-19T00:04:18;3;2;
81640;PMS5003;71053;50.722;-1.944;2023-09-19T00:06:43;0;0;
81640;PMS5003;71053;50.722;-1.944;2023-09-19T00:09:09;3;2;
81640;PMS5003;71053;50.722;-1.944;2023-09-19T00:11:34;3;2;
81640;PMS5003;71053;50.722;-1.944;2023-09-19T00:13:59;3;2;
81640;PMS5003;71053;50.722;-1.944;2023-09-19T00:16:24;4;3;
81640;PMS5003;71053;50.722;-1.944;2023-09-19T00:18:49;3;2;
81640;PMS5003;71053;50.722;-1.944;2023-09-19T00:21:15;5;4;
81640;PMS5003;71053;50.722;-1.944;2023-09-19T00:23:40;3;3;
81640;PMS5003;71053;50.722;-1.944;2023-09-19T00:26:05;3;2;
81640;PMS5003;71053;50.722;-1.944;2023-09-19T00:28:30;2;2;
81640;PMS5003;71053;50.722;-1.944;2023-09-19T00:30:56;3;3;
81640;PMS5003;71053;50.722;-1.944;2023-09-19T00:33:21;3;3;
81640;PMS5003;71053;50.722;-1.944;2023-09-19T00:35:47;3;3;
81640;PMS5003;71053;50.722;-1.944;2023-09-19T00:38:12;4;4;
81640;PMS5003;71053;50.722;-1.944;2023-09-19T00:40:37;2;2;
81640;PMS5003;71053;50.722;-1.944;2023-09-19T00:43:02;3;3;
81640;PMS5003;71053;50.722;-1.944;2023-09-19T00:45:27;3;2;
81640;PMS5003;71053;50.722;-1.944;2023-09-19T00:47:53;2;2;
81640;PMS5003;71053;50.722;-1.944;2023-09-19T00:50:18;3;3;
81640;PMS5003;71053;50.722;-1.944;2023-09-19T00:52:43;3;2;
81640;PMS5003;71053;50.722;-1.944;2023-09-19T00:55:09;2;2;
81640;PMS5003;71053;50.722;-1.944;2023-09-19T00:57:34;3;3;
81640;PMS5003;71053;50.722;-1.944;2023-09-19T00:59:59;1;1;
81640;PMS5003;71053;50.722;-1.944;2023-09-19T01:02:24;3;3;
81640;PMS5003;71053;50.722;-1.944;2023-09-19T01:04:49;2;2;
81640;PMS5003;71053;50.722;-1.944;2023-09-19T01:07:14;2;2;
81640;PMS5003;71053;50.722;-1.944;2023-09-19T01:09:40;1;1;
81640;PMS5003;71053;50.722;-1.944;2023-09-19T01:12:05;2;2;
81640;PMS5003;71053;50.722;-1.944;2023-09-19T01:14:31;2;2;
81640;PMS5003;71053;50.722;-1.944;2023-09-19T01:16:57;3;3;
81640;PMS5003;71053;50.722;-1.944;2023-09-19T01:19:26;2;2;
81640;PMS5003;71053;50.722;-1.944;2023-09-19T01:21:48;1;1;
81640;PMS5003;71053;50.722;-1.944;2023-09-19T01:31:28;1;1;
81640;PMS5003;71053;50.722;-1.944;2023-09-19T01:33:53;1;1;
81640;PMS5003;71053;50.722;-1.944;2023-09-19T01:36:17;2;2;
81640;PMS5003;71053;50.722;-1.944;2023-09-19T01:38:43;1;1;
81640;PMS5003;71053;50.722;-1.944;2023-09-19T01:41:11;2;2;
81640;PMS5003;71053;50.722;-1.944;2023-09-19T01:43:36;2;2;
81640;PMS5003;71053;50.722;-1.944;2023-09-19T01:46:01;2;2;
81640;PMS5003;71053;50.722;-1.944;2023-09-19T01:48:25;2;2;
81640;PMS5003;71053;50.722;-1.944;2023-09-19T01:50:52;2;2;
81640;PMS5003;71053;50.722;-1.944;2023-09-19T01:53:17;1;1;
81640;PMS5003;71053;50.722;-1.944;2023-09-19T01:55:41;2;2;
81640;PMS5003;71053;50.722;-1.944;2023-09-19T01:58:06;2;1;
81640;PMS5003;71053;50.722;-1.944;2023-09-19T02:00:31;0;0;
81640;PMS5003;71053;50.722;-1.944;2023-09-19T02:02:56;1;1;
81640;PMS5003;71053;50.722;-1.944;2023-09-19T02:05:22;2;2;
81640;PMS5003;71053;50.722;-1.944;2023-09-19T02:07:46;2;2;
81640;PMS5003;71053;50.722;-1.944;2023-09-19T02:10:11;1;1;
81640;PMS5003;71053;50.722;-1.944;2023-09-19T02:12:37;0;0;
81640;PMS5003;71053;50.722;-1.944;2023-09-19T02:15:03;1;1;
81640;PMS5003;71053;50.722;-1.944;2023-09-19T02:17:28;1;1;
81640;PMS5003;71053;50.722;-1.944;2023-09-19T02:19:53;2;1;
81640;PMS5003;71053;50.722;-1.944;2023-09-19T02:22:18;0;0;
81640;PMS5003;71053;50.722;-1.944;2023-09-19T02:24:43;2;2;
81640;PMS5003;71053;50.722;-1.944;2023-09-19T02:27:08;1;1;
81640;PMS5003;71053;50.722;-1.944;2023-09-19T02:29:34;1;1;
81640;PMS5003;71053;50.722;-1.944;2023-09-19T02:31:59;3;3;
81640;PMS5003;71053;50.722;-1.944;2023-09-19T02:34:25;1;1;
81640;PMS5003;71053;50.722;-1.944;2023-09-19T02:36:50;3;1;
81640;PMS5003;71053;50.722;-1.944;2023-09-19T02:39:15;0;0;
81640;PMS5003;71053;50.722;-1.944;2023-09-19T02:41:41;1;1;
81640;PMS5003;71053;50.722;-1.944;2023-09-19T02:44:06;1;1;
81640;PMS5003;71053;50.722;-1.944;2023-09-19T02:46:31;1;1;
81640;PMS5003;71053;50.722;-1.944;2023-09-19T02:48:56;1;1;
81640;PMS5003;71053;50.722;-1.944;2023-09-19T02:51:21;1;1;
81640;PMS5003;71053;50.722;-1.944;2023-09-19T02:53:47;3;1;
81640;PMS5003;71053;50.722;-1.944;2023-09-19T02:56:12;2;2;
81640;PMS5003;71053;50.722;-1.944;2023-09-19T02:58:37;1;1;
81640;PMS5003;71053;50.722;-1.944;2023-09-19T03:03:27;0;0;
81640;PMS5003;71053;50.722;-1.944;2023-09-19T03:05:52;2;2;
81640;PMS5003;71053;50.722;-1.944;2023-09-19T03:08:18;2;1;
81640;PMS5003;71053;50.722;-1.944;2023-09-19T03:10:44;3;3;
81640;PMS5003;71053;50.722;-1.944;2023-09-19T03:13:08;1;1;
81640;PMS5003;71053;50.722;-1.944;2023-09-19T03:15:33;2;2;
81640;PMS5003;71053;50.722;-1.944;2023-09-19T03:17:58;3;3;
81640;PMS5003;71053;50.722;-1.944;2023-09-19T03:20:24;2;1;
81640;PMS5003;71053;50.722;-1.944;2023-09-19T03:22:49;3;3;
81640;PMS5003;71053;50.722;-1.944;2023-09-19T03:25:14;3;3;
81640;PMS5003;71053;50.722;-1.944;2023-09-19T03:27:39;3;2;
81640;PMS5003;71053;50.722;-1.944;2023-09-19T03:30:05;1;1;
81640;PMS5003;71053;50.722;-1.944;2023-09-19T03:32:29;0;0;
81640;PMS5003;71053;50.722;-1.944;2023-09-19T03:34:55;2;2;
81640;PMS5003;71053;50.722;-1.944;2023-09-19T03:37:20;0;0;
81640;PMS5003;71053;50.722;-1.944;2023-09-19T03:39:45;1;1;
81640;PMS5003;71053;50.722;-1.944;2023-09-19T03:42:10;0;0;
81640;PMS5003;71053;50.722;-1.944;2023-09-19T03:44:35;1;1;
81640;PMS5003;71053;50.722;-1.944;2023-09-19T03:47:00;2;2;
81640;PMS5003;71053;50.722;-1.944;2023-09-19T03:49:26;1;1;
81640;PMS5003;71053;50.722;-1.944;2023-09-19T03:51:51;1;1;
81640;PMS5003;71053;50.722;-1.944;2023-09-19T03:54:16;1;1;
81640;PMS5003;71053;50.722;-1.944;2023-09-19T03:56:41;2;1;
81640;PMS5003;71053;50.722;-1.944;2023-09-19T03:59:06;1;1;
81640;PMS5003;71053;50.722;-1.944;2023-09-19T04:01:32;3;2;
81640;PMS5003;71053;50.722;-1.944;2023-09-19T04:03:57;1;1;
81640;PMS5003;71053;50.722;-1.944;2023-09-19T04:06:22;4;4;
81640;PMS5003;71053;50.722;-1.944;2023-09-19T04:08:47;0;0;
81640;PMS5003;71053;50.722;-1.944;2023-09-19T04:11:13;1;1;
81640;PMS5003;71053;50.722;-1.944;2023-09-19T04:13:37;2;2;
81640;PMS5003;71053;50.722;-1.944;2023-09-19T04:16:03;1;1;
81640;PMS5003;71053;50.722;-1.944;2023-09-19T04:18:28;2;1;
81640;PMS5003;71053;50.722;-1.944;2023-09-19T04:20:53;3;1;
81640;PMS5003;71053;50.722;-1.944;2023-09-19T04:23:18;2;1;
81640;PMS5003;71053;50.722;-1.944;2023-09-19T04:25:43;1;1;
81640;PMS5003;71053;50.722;-1.944;2023-09-19T04:28:09;1;1;
81640;PMS5003;71053;50.722;-1.944;2023-09-19T04:30:34;4;3;
81640;PMS5003;71053;50.722;-1.944;2023-09-19T04:32:59;0;0;
81640;PMS5003;71053;50.722;-1.944;2023-09-19T04:35:24;1;1;
81640;PMS5003;71053;50.722;-1.944;2023-09-19T04:37:50;2;2;
81640;PMS5003;71053;50.722;-1.944;2023-09-19T04:40:14;2;2;
81640;PMS5003;71053;50.722;-1.944;2023-09-19T04:42:40;1;1;
81640;PMS5003;71053;50.722;-1.944;2023-09-19T04:45:05;1;1;
81640;PMS5003;71053;50.722;-1.944;2023-09-19T04:47:30;1;1;
81640;PMS5003;71053;50.722;-1.944;2023-09-19T04:49:55;2;2;
81640;PMS5003;71053;50.722;-1.944;2023-09-19T04:52:20;1;1;
81640;PMS5003;71053;50.722;-1.944;2023-09-19T04:54:46;4;3;
81640;PMS5003;71053;50.722;-1.944;2023-09-19T04:57:11;2;2;
81640;PMS5003;71053;50.722;-1.944;2023-09-19T04:59:36;2;2;
81640;PMS5003;71053;50.722;-1.944;2023-09-19T05:02:02;1;1;
81640;PMS5003;71053;50.722;-1.944;2023-09-19T05:04:27;2;2;
81640;PMS5003;71053;50.722;-1.944;2023-09-19T05:06:52;1;1;
81640;PMS5003;71053;50.722;-1.944;2023-09-19T05:09:17;3;2;
81640;PMS5003;71053;50.722;-1.944;2023-09-19T05:11:43;1;0;
81640;PMS5003;71053;50.722;-1.944;2023-09-19T05:14:08;4;4;
81640;PMS5003;71053;50.722;-1.944;2023-09-19T05:16:33;1;1;
81640;PMS5003;71053;50.722;-1.944;2023-09-19T05:18:58;1;1;
81640;PMS5003;71053;50.722;-1.944;2023-09-19T05:21:24;5;4;
81640;PMS5003;71053;50.722;-1.944;2023-09-19T05:23:49;3;3;
81640;PMS5003;71053;50.722;-1.944;2023-09-19T05:26:14;3;3;
81640;PMS5003;71053;50.722;-1.944;2023-09-19T05:28:39;2;2;
81640;PMS5003;71053;50.722;-1.944;2023-09-19T05:31:05;5;2;
81640;PMS5003;71053;50.722;-1.944;2023-09-19T05:33:30;3;2;
81640;PMS5003;71053;50.722;-1.944;2023-09-19T05:35:55;2;2;
81640;PMS5003;71053;50.722;-1.944;2023-09-19T05:38:20;2;2;
81640;PMS5003;71053;50.722;-1.944;2023-09-19T05:40:46;3;3;
81640;PMS5003;71053;50.722;-1.944;2023-09-19T05:43:11;4;4;
81640;PMS5003;71053;50.722;-1.944;2023-09-19T05:45:36;4;4;
81640;PMS5003;71053;50.722;-1.944;2023-09-19T05:50:26;3;3;
81640;PMS5003;71053;50.722;-1.944;2023-09-19T05:52:52;4;4;
81640;PMS5003;71053;50.722;-1.944;2023-09-19T05:55:17;3;2;
81640;PMS5003;71053;50.722;-1.944;2023-09-19T05:57:42;4;4;
81640;PMS5003;71053;50.722;-1.944;2023-09-19T06:00:08;3;3;
81640;PMS5003;71053;50.722;-1.944;2023-09-19T06:02:32;7;6;
81640;PMS5003;71053;50.722;-1.944;2023-09-19T06:04:58;3;3;
81640;PMS5003;71053;50.722;-1.944;2023-09-19T06:07:23;3;3;
81640;PMS5003;71053;50.722;-1.944;2023-09-19T06:09:48;5;5;
81640;PMS5003;71053;50.722;-1.944;2023-09-19T06:12:13;5;5;
81640;PMS5003;71053;50.722;-1.944;2023-09-19T06:14:39;5;4;
81640;PMS5003;71053;50.722;-1.944;2023-09-19T06:17:04;6;5;
81640;PMS5003;71053;50.722;-1.944;2023-09-19T06:19:29;4;3;
81640;PMS5003;71053;50.722;-1.944;2023-09-19T06:21:54;8;8;
81640;PMS5003;71053;50.722;-1.944;2023-09-19T06:24:20;6;6;
81640;PMS5003;71053;50.722;-1.944;2023-09-19T06:26:45;7;6;
81640;PMS5003;71053;50.722;-1.944;2023-09-19T06:29:10;5;5;
81640;PMS5003;71053;50.722;-1.944;2023-09-19T06:31:35;6;5;
81640;PMS5003;71053;50.722;-1.944;2023-09-19T06:34:00;6;6;
81640;PMS5003;71053;50.722;-1.944;2023-09-19T06:36:26;5;5;
81640;PMS5003;71053;50.722;-1.944;2023-09-19T06:38:51;5;5;
81640;PMS5003;71053;50.722;-1.944;2023-09-19T06:41:16;5;5;
81640;PMS5003;71053;50.722;-1.944;2023-09-19T06:43:41;6;5;
81640;PMS5003;71053;50.722;-1.944;2023-09-19T06:46:07;4;4;
81640;PMS5003;71053;50.722;-1.944;2023-09-19T06:48:32;8;8;
81640;PMS5003;71053;50.722;-1.944;2023-09-19T06:50:57;6;5;
81640;PMS5003;71053;50.722;-1.944;2023-09-19T06:53:22;6;6;
81640;PMS5003;71053;50.722;-1.944;2023-09-19T06:55:48;8;8;
81640;PMS5003;71053;50.722;-1.944;2023-09-19T06:58:13;5;5;
81640;PMS5003;71053;50.722;-1.944;2023-09-19T07:00:38;5;5;
81640;PMS5003;71053;50.722;-1.944;2023-09-19T07:03:05;7;6;
81640;PMS5003;71053;50.722;-1.944;2023-09-19T07:05:29;7;7;
81640;PMS5003;71053;50.722;-1.944;2023-09-19T07:07:54;6;5;
81640;PMS5003;71053;50.722;-1.944;2023-09-19T07:10:20;8;6;
81640;PMS5003;71053;50.722;-1.944;2023-09-19T07:12:45;8;8;
81640;PMS5003;71053;50.722;-1.944;2023-09-19T07:15:10;7;7;
81640;PMS5003;71053;50.722;-1.944;2023-09-19T07:17:36;10;9;
81640;PMS5003;71053;50.722;-1.944;2023-09-19T07:20:01;6;6;
81640;PMS5003;71053;50.722;-1.944;2023-09-19T07:22:26;8;7;
81640;PMS5003;71053;50.722;-1.944;2023-09-19T07:24:51;11;8;
81640;PMS5003;71053;50.722;-1.944;2023-09-19T07:27:17;7;6;
81640;PMS5003;71053;50.722;-1.944;2023-09-19T07:29:42;6;6;
81640;PMS5003;71053;50.722;-1.944;2023-09-19T07:32:07;4;4;
81640;PMS5003;71053;50.722;-1.944;2023-09-19T07:34:33;4;4;
81640;PMS5003;71053;50.722;-1.944;2023-09-19T07:36:58;8;7;
81640;PMS5003;71053;50.722;-1.944;2023-09-19T07:39:24;5;5;
81640;PMS5003;71053;50.722;-1.944;2023-09-19T07:41:49;5;5;
81640;PMS5003;71053;50.722;-1.944;2023-09-19T07:44:14;9;8;
81640;PMS5003;71053;50.722;-1.944;2023-09-19T07:46:40;8;8;
81640;PMS5003;71053;50.722;-1.944;2023-09-19T07:49:05;8;7;
81640;PMS5003;71053;50.722;-1.944;2023-09-19T07:51:31;11;10;
81640;PMS5003;71053;50.722;-1.944;2023-09-19T07:53:57;10;8;
81640;PMS5003;71053;50.722;-1.944;2023-09-19T07:56:22;7;6;
81640;PMS5003;71053;50.722;-1.944;2023-09-19T07:58:47;10;9;
81640;PMS5003;71053;50.722;-1.944;2023-09-19T08:01:13;10;10;
81640;PMS5003;71053;50.722;-1.944;2023-09-19T08:03:39;9;9;
81640;PMS5003;71053;50.722;-1.944;2023-09-19T08:06:04;7;7;
81640;PMS5003;71053;50.722;-1.944;2023-09-19T08:08:29;10;8;
81640;PMS5003;71053;50.722;-1.944;2023-09-19T08:10:54;8;8;
81640;PMS5003;71053;50.722;-1.944;2023-09-19T08:13:20;9;9;
81640;PMS5003;71053;50.722;-1.944;2023-09-19T08:15:45;10;9;
81640;PMS5003;71053;50.722;-1.944;2023-09-19T08:18:10;7;6;
81640;PMS5003;71053;50.722;-1.944;2023-09-19T08:20:36;6;6;
81640;PMS5003;71053;50.722;-1.944;2023-09-19T08:23:01;9;8;
81640;PMS5003;71053;50.722;-1.944;2023-09-19T08:25:27;9;8;
81640;PMS5003;71053;50.722;-1.944;2023-09-19T08:27:53;7;7;
81640;PMS5003;71053;50.722;-1.944;2023-09-19T08:30:19;7;7;
81640;PMS5003;71053;50.722;-1.944;2023-09-19T08:32:44;8;7;
81640;PMS5003;71053;50.722;-1.944;2023-09-19T08:35:10;8;7;
81640;PMS5003;71053;50.722;-1.944;2023-09-19T08:37:34;16;15;
81640;PMS5003;71053;50.722;-1.944;2023-09-19T08:40:00;8;8;
81640;PMS5003;71053;50.722;-1.944;2023-09-19T08:42:25;9;9;
81640;PMS5003;71053;50.722;-1.944;2023-09-19T08:44:51;8;8;
81640;PMS5003;71053;50.722;-1.944;2023-09-19T08:47:17;7;7;
81640;PMS5003;71053;50.722;-1.944;2023-09-19T08:49:45;7;7;
81640;PMS5003;71053;50.722;-1.944;2023-09-19T08:52:10;9;8;
81640;PMS5003;71053;50.722;-1.944;2023-09-19T08:54:35;8;8;
81640;PMS5003;71053;50.722;-1.944;2023-09-19T08:56:58;11;9;
81640;PMS5003;71053;50.722;-1.944;2023-09-19T08:59:24;9;9;
81640;PMS5003;71053;50.722;-1.944;2023-09-19T09:01:49;7;7;
81640;PMS5003;71053;50.722;-1.944;2023-09-19T09:04:15;8;6;
81640;PMS5003;71053;50.722;-1.944;2023-09-19T09:06:41;9;9;
81640;PMS5003;71053;50.722;-1.944;2023-09-19T09:09:06;6;6;
81640;PMS5003;71053;50.722;-1.944;2023-09-19T09:11:32;7;7;
81640;PMS5003;71053;50.722;-1.944;2023-09-19T09:13:56;9;9;
81640;PMS5003;71053;50.722;-1.944;2023-09-19T09:16:22;7;7;
81640;PMS5003;71053;50.722;-1.944;2023-09-19T09:18:48;8;7;
81640;PMS5003;71053;50.722;-1.944;2023-09-19T09:21:13;6;5;
81640;PMS5003;71053;50.722;-1.944;2023-09-19T09:23:38;12;11;
81640;PMS5003;71053;50.722;-1.944;2023-09-19T09:26:04;9;9;
81640;PMS5003;71053;50.722;-1.944;2023-09-19T09:28:30;10;9;
81640;PMS5003;71053;50.722;-1.944;2023-09-19T09:30:55;9;8;
81640;PMS5003;71053;50.722;-1.944;2023-09-19T09:33:20;9;8;
81640;PMS5003;71053;50.722;-1.944;2023-09-19T09:35:48;10;10;
81640;PMS5003;71053;50.722;-1.944;2023-09-19T09:38:12;8;8;
81640;PMS5003;71053;50.722;-1.944;2023-09-19T09:40:46;10;10;
81640;PMS5003;71053;50.722;-1.944;2023-09-19T09:43:03;12;11;
81640;PMS5003;71053;50.722;-1.944;2023-09-19T09:45:29;15;12;
81640;PMS5003;71053;50.722;-1.944;2023-09-19T09:47:54;9;9;
81640;PMS5003;71053;50.722;-1.944;2023-09-19T09:50:26;8;8;
81640;PMS5003;71053;50.722;-1.944;2023-09-19T09:52:45;12;11;
81640;PMS5003;71053;50.722;-1.944;2023-09-19T09:55:09;10;10;
81640;PMS5003;71053;50.722;-1.944;2023-09-19T09:57:35;8;8;
81640;PMS5003;71053;50.722;-1.944;2023-09-19T10:00:01;13;13;
81640;PMS5003;71053;50.722;-1.944;2023-09-19T10:02:26;9;8;
81640;PMS5003;71053;50.722;-1.944;2023-09-19T10:04:51;7;7;
81640;PMS5003;71053;50.722;-1.944;2023-09-19T10:09:45;7;7;
81640;PMS5003;71053;50.722;-1.944;2023-09-19T10:12:07;9;8;
81640;PMS5003;71053;50.722;-1.944;2023-09-19T10:14:34;6;6;
81640;PMS5003;71053;50.722;-1.944;2023-09-19T10:16:58;6;6;
81640;PMS5003;71053;50.722;-1.944;2023-09-19T10:19:23;7;7;
81640;PMS5003;71053;50.722;-1.944;2023-09-19T10:21:48;8;8;
81640;PMS5003;71053;50.722;-1.944;2023-09-19T10:24:13;11;9;
81640;PMS5003;71053;50.722;-1.944;2023-09-19T10:26:39;9;9;
81640;PMS5003;71053;50.722;-1.944;2023-09-19T10:29:04;9;9;
81640;PMS5003;71053;50.722;-1.944;2023-09-19T10:31:29;10;9;
81640;PMS5003;71053;50.722;-1.944;2023-09-19T10:33:54;9;8;
81640;PMS5003;71053;50.722;-1.944;2023-09-19T10:36:20;8;8;
81640;PMS5003;71053;50.722;-1.944;2023-09-19T10:38:45;10;10;
81640;PMS5003;71053;50.722;-1.944;2023-09-19T10:41:11;10;10;
81640;PMS5003;71053;50.722;-1.944;2023-09-19T10:43:36;12;12;
81640;PMS5003;71053;50.722;-1.944;2023-09-19T10:46:02;11;10;
81640;PMS5003;71053;50.722;-1.944;2023-09-19T10:48:26;14;12;
81640;PMS5003;71053;50.722;-1.944;2023-09-19T10:50:53;9;9;
81640;PMS5003;71053;50.722;-1.944;2023-09-19T10:53:17;12;11;
81640;PMS5003;71053;50.722;-1.944;2023-09-19T10:55:48;11;10;
81640;PMS5003;71053;50.722;-1.944;2023-09-19T10:58:08;16;15;
81640;PMS5003;71053;50.722;-1.944;2023-09-19T11:05:25;10;9;
81640;PMS5003;71053;50.722;-1.944;2023-09-19T11:12:49;8;6;
81640;PMS5003;71053;50.722;-1.944;2023-09-19T11:15:07;9;8;
81640;PMS5003;71053;50.722;-1.944;2023-09-19T11:17:32;10;8;
81640;PMS5003;71053;50.722;-1.944;2023-09-19T11:22:23;9;7;
81640;PMS5003;71053;50.722;-1.944;2023-09-19T11:24:48;7;6;
81640;PMS5003;71053;50.722;-1.944;2023-09-19T11:27:14;7;7;
81640;PMS5003;71053;50.722;-1.944;2023-09-19T11:29:39;9;9;
81640;PMS5003;71053;50.722;-1.944;2023-09-19T11:32:04;8;7;
81640;PMS5003;71053;50.722;-1.944;2023-09-19T11:34:38;6;6;
81640;PMS5003;71053;50.722;-1.944;2023-09-19T11:36:54;8;7;
81640;PMS5003;71053;50.722;-1.944;2023-09-19T11:39:24;9;8;
81640;PMS5003;71053;50.722;-1.944;2023-09-19T11:41:45;8;7;
81640;PMS5003;71053;50.722;-1.944;2023-09-19T11:46:52;6;6;
81640;PMS5003;71053;50.722;-1.944;2023-09-19T11:49:05;7;5;
81640;PMS5003;71053;50.722;-1.944;2023-09-19T11:51:26;4;4;
81640;PMS5003;71053;50.722;-1.944;2023-09-19T11:53:53;7;7;
81640;PMS5003;71053;50.722;-1.944;2023-09-19T11:56:18;8;7;
81640;PMS5003;71053;50.722;-1.944;2023-09-19T11:58:43;6;5;
81640;PMS5003;71053;50.722;-1.944;2023-09-19T12:01:08;6;6;
81640;PMS5003;71053;50.722;-1.944;2023-09-19T12:03:33;5;5;
81640;PMS5003;71053;50.722;-1.944;2023-09-19T12:05:59;6;6;
81640;PMS5003;71053;50.722;-1.944;2023-09-19T12:08:24;6;4;
81640;PMS5003;71053;50.722;-1.944;2023-09-19T12:10:51;8;8;
81640;PMS5003;71053;50.722;-1.944;2023-09-19T12:13:16;7;6;
81640;PMS5003;71053;50.722;-1.944;2023-09-19T12:15:40;6;5;
81640;PMS5003;71053;50.722;-1.944;2023-09-19T12:18:05;6;6;
81640;PMS5003;71053;50.722;-1.944;2023-09-19T12:22:56;6;5;
81640;PMS5003;71053;50.722;-1.944;2023-09-19T12:25:21;5;4;
81640;PMS5003;71053;50.722;-1.944;2023-09-19T12:27:47;6;6;
81640;PMS5003;71053;50.722;-1.944;2023-09-19T12:30:12;6;6;
81640;PMS5003;71053;50.722;-1.944;2023-09-19T12:32:37;4;4;
81640;PMS5003;71053;50.722;-1.944;2023-09-19T12:35:02;6;6;
81640;PMS5003;71053;50.722;-1.944;2023-09-19T12:37:28;9;9;
81640;PMS5003;71053;50.722;-1.944;2023-09-19T12:39:53;7;6;
81640;PMS5003;71053;50.722;-1.944;2023-09-19T12:42:20;8;6;
81640;PMS5003;71053;50.722;-1.944;2023-09-19T12:44:45;6;5;
81640;PMS5003;71053;50.722;-1.944;2023-09-19T12:47:10;6;5;
81640;PMS5003;71053;50.722;-1.944;2023-09-19T12:49:34;6;6;
81640;PMS5003;71053;50.722;-1.944;2023-09-19T12:51:59;6;5;
81640;PMS5003;71053;50.722;-1.944;2023-09-19T12:54:25;5;4;
81640;PMS5003;71053;50.722;-1.944;2023-09-19T12:56:50;6;6;
81640;PMS5003;71053;50.722;-1.944;2023-09-19T12:59:16;4;4;
81640;PMS5003;71053;50.722;-1.944;2023-09-19T13:01:41;8;7;
81640;PMS5003;71053;50.722;-1.944;2023-09-19T13:04:12;8;6;
81640;PMS5003;71053;50.722;-1.944;2023-09-19T13:06:35;7;7;
81640;PMS5003;71053;50.722;-1.944;2023-09-19T13:11:22;6;6;
81640;PMS5003;71053;50.722;-1.944;2023-09-19T13:13:49;6;6;
81640;PMS5003;71053;50.722;-1.944;2023-09-19T13:16:12;9;9;
81640;PMS5003;71053;50.722;-1.944;2023-09-19T13:18:45;9;9;
81640;PMS5003;71053;50.722;-1.944;2023-09-19T13:21:06;9;7;
81640;PMS5003;71053;50.722;-1.944;2023-09-19T13:23:28;9;8;
81640;PMS5003;71053;50.722;-1.944;2023-09-19T13:25:53;8;8;
81640;PMS5003;71053;50.722;-1.944;2023-09-19T13:28:18;6;6;
81640;PMS5003;71053;50.722;-1.944;2023-09-19T13:30:44;7;7;
81640;PMS5003;71053;50.722;-1.944;2023-09-19T13:33:11;8;8;
81640;PMS5003;71053;50.722;-1.944;2023-09-19T13:35:35;9;9;
81640;PMS5003;71053;50.722;-1.944;2023-09-19T13:38:00;9;8;
81640;PMS5003;71053;50.722;-1.944;2023-09-19T13:40:26;7;7;
81640;PMS5003;71053;50.722;-1.944;2023-09-19T13:42:51;8;8;
81640;PMS5003;71053;50.722;-1.944;2023-09-19T13:45:17;10;8;
81640;PMS5003;71053;50.722;-1.944;2023-09-19T13:47:42;9;8;
81640;PMS5003;71053;50.722;-1.944;2023-09-19T13:50:07;9;9;
81640;PMS5003;71053;50.722;-1.944;2023-09-19T13:52:33;9;9;
81640;PMS5003;71053;50.722;-1.944;2023-09-19T13:54:59;8;6;
81640;PMS5003;71053;50.722;-1.944;2023-09-19T13:57:24;12;11;
81640;PMS5003;71053;50.722;-1.944;2023-09-19T13:59:51;9;9;
81640;PMS5003;71053;50.722;-1.944;2023-09-19T14:02:15;8;8;
81640;PMS5003;71053;50.722;-1.944;2023-09-19T14:04:40;7;6;
81640;PMS5003;71053;50.722;-1.944;2023-09-19T14:07:06;11;9;
81640;PMS5003;71053;50.722;-1.944;2023-09-19T14:09:31;8;7;
81640;PMS5003;71053;50.722;-1.944;2023-09-19T14:11:57;9;8;
81640;PMS5003;71053;50.722;-1.944;2023-09-19T14:14:22;9;9;
81640;PMS5003;71053;50.722;-1.944;2023-09-19T14:16:47;8;8;
81640;PMS5003;71053;50.722;-1.944;2023-09-19T14:19:13;6;6;
81640;PMS5003;71053;50.722;-1.944;2023-09-19T14:21:38;6;6;
81640;PMS5003;71053;50.722;-1.944;2023-09-19T14:24:04;7;7;
81640;PMS5003;71053;50.722;-1.944;2023-09-19T14:26:29;8;8;
81640;PMS5003;71053;50.722;-1.944;2023-09-19T14:28:54;8;7;
81640;PMS5003;71053;50.722;-1.944;2023-09-19T14:31:19;8;8;
81640;PMS5003;71053;50.722;-1.944;2023-09-19T14:33:45;9;9;
81640;PMS5003;71053;50.722;-1.944;2023-09-19T14:36:11;9;9;
81640;PMS5003;71053;50.722;-1.944;2023-09-19T14:38:36;8;7;
81640;PMS5003;71053;50.722;-1.944;2023-09-19T14:41:01;8;8;
81640;PMS5003;71053;50.722;-1.944;2023-09-19T14:43:26;9;9;
81640;PMS5003;71053;50.722;-1.944;2023-09-19T14:45:52;8;8;
81640;PMS5003;71053;50.722;-1.944;2023-09-19T14:48:17;10;10;
81640;PMS5003;71053;50.722;-1.944;2023-09-19T14:50:42;7;7;
81640;PMS5003;71053;50.722;-1.944;2023-09-19T14:53:08;9;8;
81640;PMS5003;71053;50.722;-1.944;2023-09-19T14:55:36;11;8;
81640;PMS5003;71053;50.722;-1.944;2023-09-19T14:57:58;9;8;
81640;PMS5003;71053;50.722;-1.944;2023-09-19T15:00:24;7;6;
81640;PMS5003;71053;50.722;-1.944;2023-09-19T15:05:15;7;7;
81640;PMS5003;71053;50.722;-1.944;2023-09-19T15:07:40;8;8;
81640;PMS5003;71053;50.722;-1.944;2023-09-19T15:10:05;6;5;
81640;PMS5003;71053;50.722;-1.944;2023-09-19T15:12:30;7;6;
81640;PMS5003;71053;50.722;-1.944;2023-09-19T15:14:55;6;6;
81640;PMS5003;71053;50.722;-1.944;2023-09-19T15:17:21;6;6;
81640;PMS5003;71053;50.722;-1.944;2023-09-19T15:19:46;8;7;
81640;PMS5003;71053;50.722;-1.944;2023-09-19T15:22:11;8;7;
81640;PMS5003;71053;50.722;-1.944;2023-09-19T15:24:37;11;9;
81640;PMS5003;71053;50.722;-1.944;2023-09-19T15:27:02;7;6;
81640;PMS5003;71053;50.722;-1.944;2023-09-19T15:29:28;8;8;
81640;PMS5003;71053;50.722;-1.944;2023-09-19T15:31:54;6;6;
81640;PMS5003;71053;50.722;-1.944;2023-09-19T15:34:18;7;6;
81640;PMS5003;71053;50.722;-1.944;2023-09-19T15:36:43;7;6;
81640;PMS5003;71053;50.722;-1.944;2023-09-19T15:39:09;7;7;
81640;PMS5003;71053;50.722;-1.944;2023-09-19T15:41:34;5;5;
81640;PMS5003;71053;50.722;-1.944;2023-09-19T15:44:00;8;6;
81640;PMS5003;71053;50.722;-1.944;2023-09-19T15:46:25;10;8;
81640;PMS5003;71053;50.722;-1.944;2023-09-19T15:48:50;4;4;
81640;PMS5003;71053;50.722;-1.944;2023-09-19T15:51:15;6;6;
81640;PMS5003;71053;50.722;-1.944;2023-09-19T15:53:43;4;4;
81640;PMS5003;71053;50.722;-1.944;2023-09-19T15:56:07;9;8;
81640;PMS5003;71053;50.722;-1.944;2023-09-19T15:58:32;7;7;
81640;PMS5003;71053;50.722;-1.944;2023-09-19T16:00:57;8;8;
81640;PMS5003;71053;50.722;-1.944;2023-09-19T16:03:22;7;5;
81640;PMS5003;71053;50.722;-1.944;2023-09-19T16:05:48;9;9;
81640;PMS5003;71053;50.722;-1.944;2023-09-19T16:08:14;8;7;
81640;PMS5003;71053;50.722;-1.944;2023-09-19T16:10:38;6;6;
81640;PMS5003;71053;50.722;-1.944;2023-09-19T16:13:04;9;8;
81640;PMS5003;71053;50.722;-1.944;2023-09-19T16:15:29;7;7;
81640;PMS5003;71053;50.722;-1.944;2023-09-19T16:17:55;8;8;
81640;PMS5003;71053;50.722;-1.944;2023-09-19T16:20:21;7;6;
81640;PMS5003;71053;50.722;-1.944;2023-09-19T16:22:46;6;6;
81640;PMS5003;71053;50.722;-1.944;2023-09-19T16:25:12;5;5;
81640;PMS5003;71053;50.722;-1.944;2023-09-19T16:27:37;9;8;
81640;PMS5003;71053;50.722;-1.944;2023-09-19T16:30:02;9;9;
81640;PMS5003;71053;50.722;-1.944;2023-09-19T16:32:28;8;6;
81640;PMS5003;71053;50.722;-1.944;2023-09-19T16:34:53;9;7;
81640;PMS5003;71053;50.722;-1.944;2023-09-19T16:37:19;8;7;
81640;PMS5003;71053;50.722;-1.944;2023-09-19T16:39:45;6;6;
81640;PMS5003;71053;50.722;-1.944;2023-09-19T16:42:10;7;6;
81640;PMS5003;71053;50.722;-1.944;2023-09-19T16:44:35;6;6;
81640;PMS5003;71053;50.722;-1.944;2023-09-19T16:47:01;7;6;
81640;PMS5003;71053;50.722;-1.944;2023-09-19T16:49:26;8;6;
81640;PMS5003;71053;50.722;-1.944;2023-09-19T16:51:52;6;5;
81640;PMS5003;71053;50.722;-1.944;2023-09-19T16:54:18;10;9;